Time;durP1;ratioP1;P1;durP2;ratioP2;P2;SDS_P1;SDS_P2;PMS_P1;PMS_P2;Temp;Humidity;BMP_temperature;BMP_pressure;BME280_temperature;BME280_humidity;BME280_pressure;Samples;Min_cycle;Max_cycle;Signal;HPM_P1;HPM_P2
2024/01/23 00:00:21;;;;;;;39.07;21.80;;;;;;;-2.44;83.00;100968.59;5113912;28;20867;-66
2024/01/23 00:02:48;;;;;;;35.83;22.53;;;;;;;-2.38;83.20;100968.25;5114269;28;20448;-65
2024/01/23 00:05:14;;;;;;;34.30;22.73;;;;;;;-2.30;82.73;100966.94;5114328;28;20435;-65
2024/01/23 00:07:41;;;;;;;38.30;22.33;;;;;;;-2.46;82.05;100963.47;5113874;28;20444;-65
2024/01/23 00:10:09;;;;;;;39.57;24.47;;;;;;;-2.55;82.37;100950.94;5114220;28;20436;-65
2024/01/23 00:12:37;;;;;;;41.33;25.23;;;;;;;-2.54;82.41;100962.16;5113957;28;20471;-65
2024/01/23 00:15:04;;;;;;;38.70;23.47;;;;;;;-2.54;82.89;100959.56;5114096;28;20432;-64
2024/01/23 00:17:32;;;;;;;45.17;24.70;;;;;;;-2.70;82.51;100958.66;5113889;28;21003;-65
2024/01/23 00:19:58;;;;;;;47.30;25.20;;;;;;;-2.69;82.91;100952.56;5113703;28;20483;-65
2024/01/23 00:22:25;;;;;;;41.67;22.77;;;;;;;-2.65;83.15;100954.06;5113832;28;20443;-65
2024/01/23 00:24:52;;;;;;;40.60;24.27;;;;;;;-2.69;82.53;100944.75;5113888;28;20493;-65
2024/01/23 00:27:18;;;;;;;37.30;23.10;;;;;;;-2.71;82.99;100949.16;5112629;28;20939;-64
2024/01/23 00:29:46;;;;;;;37.67;23.97;;;;;;;-2.72;83.66;100952.69;5113698;28;20440;-65
2024/01/23 00:32:13;;;;;;;48.17;26.23;;;;;;;-2.80;83.01;100944.44;5113157;28;20529;-65
2024/01/23 00:34:40;;;;;;;37.23;23.17;;;;;;;-2.72;83.38;100942.28;5113868;28;20435;-65
2024/01/23 00:37:07;;;;;;;36.80;22.50;;;;;;;-2.66;82.85;100944.59;5112837;28;20444;-65
2024/01/23 00:39:37;;;;;;;43.47;25.47;;;;;;;-2.66;82.27;100944.59;5113456;28;20463;-65
2024/01/23 00:42:04;;;;;;;42.70;24.73;;;;;;;-2.77;82.44;100949.50;5113254;28;20788;-66
2024/01/23 00:44:31;;;;;;;36.67;21.93;;;;;;;-2.82;82.58;100946.28;5113104;28;20440;-66
2024/01/23 00:46:59;;;;;;;37.60;22.90;;;;;;;-2.96;82.55;100940.91;5113330;28;20435;-66
2024/01/23 00:49:26;;;;;;;38.53;22.63;;;;;;;-3.07;83.37;100938.84;5113343;28;20493;-66
2024/01/23 00:51:53;;;;;;;39.97;23.37;;;;;;;-3.05;83.63;100930.97;5113265;28;20468;-67
2024/01/23 00:54:19;;;;;;;43.27;26.50;;;;;;;-3.08;83.59;100912.94;5113256;28;20440;-66
2024/01/23 00:56:46;;;;;;;43.30;22.77;;;;;;;-2.99;83.69;100917.69;5112833;28;20939;-67
2024/01/23 00:59:13;;;;;;;45.53;22.77;;;;;;;-2.92;83.91;100908.66;5113183;28;20509;-66
2024/01/23 01:01:40;;;;;;;38.80;21.83;;;;;;;-2.95;83.38;100916.59;5113039;28;20440;-66
2024/01/23 01:04:08;;;;;;;42.80;22.43;;;;;;;-2.94;83.63;100907.91;5112730;28;20967;-66
2024/01/23 01:06:35;;;;;;;36.27;21.17;;;;;;;-2.87;83.44;100906.66;5112877;28;20455;-66
2024/01/23 01:09:02;;;;;;;41.03;21.50;;;;;;;-2.88;82.93;100910.19;5113091;28;20497;-64
2024/01/23 01:11:29;;;;;;;38.50;21.33;;;;;;;-2.85;83.46;100902.25;5112766;28;20496;-64
2024/01/23 01:13:56;;;;;;;38.33;23.13;;;;;;;-2.77;82.68;100897.50;5112896;28;20447;-64
2024/01/23 01:16:23;;;;;;;42.07;24.50;;;;;;;-2.74;82.40;100894.75;5112415;28;20878;-65
2024/01/23 01:18:49;;;;;;;35.77;22.47;;;;;;;-2.73;82.32;100888.63;5112909;28;20436;-65
2024/01/23 01:21:17;;;;;;;33.93;21.47;;;;;;;-2.82;82.50;100883.91;5112245;28;20978;-65
2024/01/23 01:23:44;;;;;;;36.27;22.73;;;;;;;-2.80;82.87;100877.69;5113038;28;20444;-65
2024/01/23 01:26:11;;;;;;;34.77;22.00;;;;;;;-2.76;82.82;100880.97;5112324;28;20444;-65
2024/01/23 01:28:38;;;;;;;31.73;18.73;;;;;;;-2.78;82.08;100869.81;5112306;28;20444;-65
2024/01/23 01:31:04;;;;;;;27.63;17.67;;;;;;;-2.85;81.72;100873.66;5112324;28;20516;-65
2024/01/23 01:33:31;;;;;;;23.90;16.47;;;;;;;-2.93;81.54;100876.66;5112000;28;21028;-65
2024/01/23 01:35:58;;;;;;;27.40;17.83;;;;;;;-2.84;82.77;100857.97;5112827;28;20952;-66
2024/01/23 01:38:26;;;;;;;29.00;18.27;;;;;;;-2.80;81.65;100856.06;5112340;28;20436;-65
2024/01/23 01:40:54;;;;;;;27.37;16.80;;;;;;;-2.69;81.79;100864.16;5112580;28;20472;-66
2024/01/23 01:43:25;;;;;;;26.70;18.67;;;;;;;-2.63;82.09;100863.81;5111654;28;20967;-66
2024/01/23 01:46:06;;;;;;;28.63;16.80;;;;;;;-2.68;81.04;100865.81;5112408;28;20523;-66
2024/01/23 01:48:32;;;;;;;28.27;18.90;;;;;;;-2.72;81.85;100864.28;5112024;28;20428;-66
2024/01/23 01:50:59;;;;;;;29.77;17.63;;;;;;;-2.69;81.95;100864.16;5111559;28;20439;-66
2024/01/23 01:53:27;;;;;;;26.60;16.93;;;;;;;-2.67;81.78;100862.28;5112095;28;20529;-66
2024/01/23 01:55:54;;;;;;;27.23;18.27;;;;;;;-2.68;81.79;100855.41;5112346;28;20432;-66
2024/01/23 01:58:24;;;;;;;19.83;15.33;;;;;;;-2.67;80.94;100862.28;5111881;28;20428;-66
2024/01/23 02:00:52;;;;;;;25.83;17.13;;;;;;;-2.76;81.25;100857.56;5112177;28;20934;-66
2024/01/23 02:03:19;;;;;;;26.50;16.50;;;;;;;-2.80;80.88;100856.91;5112094;28;20568;-66
2024/01/23 02:05:46;;;;;;;30.80;16.80;;;;;;;-2.78;80.80;100854.22;5111892;28;20864;-66
2024/01/23 02:08:12;;;;;;;28.37;17.97;;;;;;;-2.91;80.85;100832.34;5112004;28;20440;-66
2024/01/23 02:10:40;;;;;;;31.23;18.23;;;;;;;-2.85;81.11;100851.09;5112219;28;20440;-66
2024/01/23 02:13:08;;;;;;;41.03;20.93;;;;;;;-2.89;80.92;100846.13;5111802;28;20476;-67
2024/01/23 02:15:35;;;;;;;36.20;20.67;;;;;;;-2.92;79.96;100841.09;5111978;28;20530;-66
2024/01/23 02:18:02;;;;;;;31.60;20.60;;;;;;;-3.05;80.46;100832.22;5111967;28;20444;-66
2024/01/23 02:20:29;;;;;;;33.63;20.93;;;;;;;-3.11;80.96;100835.97;5111982;28;20436;-65
2024/01/23 02:22:56;;;;;;;35.83;21.13;;;;;;;-3.08;80.69;100833.22;5111916;28;20439;-65
2024/01/23 02:25:24;;;;;;;30.13;19.43;;;;;;;-3.12;80.73;100839.50;5111919;28;20441;-65
2024/01/23 02:27:51;;;;;;;36.07;19.43;;;;;;;-3.12;80.55;100833.44;5111590;28;20935;-65
2024/01/23 02:30:17;;;;;;;36.80;21.17;;;;;;;-3.12;81.23;100828.25;5111992;28;20443;-64
2024/01/23 02:32:44;;;;;;;33.27;18.73;;;;;;;-3.11;81.56;100827.38;5111902;28;20476;-65
2024/01/23 02:35:12;;;;;;;26.63;18.33;;;;;;;-3.10;81.41;100831.63;5112030;28;20444;-66
2024/01/23 02:37:40;;;;;;;33.37;20.37;;;;;;;-3.09;80.38;100833.31;5111985;28;20441;-66
2024/01/23 02:40:08;;;;;;;34.67;20.63;;;;;;;-3.11;80.58;100829.97;5111832;28;20549;-66
2024/01/23 02:42:36;;;;;;;37.77;19.10;;;;;;;-3.13;80.94;100826.59;5111660;28;20493;-66
2024/01/23 02:45:03;;;;;;;33.30;18.40;;;;;;;-3.12;80.94;100821.31;5111907;28;20433;-66
2024/01/23 02:47:30;;;;;;;25.43;17.50;;;;;;;-3.22;80.24;100827.91;5111403;28;20444;-66
2024/01/23 02:49:57;;;;;;;26.00;17.37;;;;;;;-3.33;80.64;100831.94;5111413;28;20504;-65
2024/01/23 02:52:25;;;;;;;30.13;17.20;;;;;;;-3.32;82.15;100818.03;5111520;28;20545;-64
2024/01/23 02:54:51;;;;;;;30.53;19.30;;;;;;;-3.25;81.60;100822.00;5111290;28;20872;-64
2024/01/23 02:57:18;;;;;;;34.00;19.30;;;;;;;-3.22;80.79;100822.72;5111243;28;20440;-64
2024/01/23 02:59:46;;;;;;;42.47;22.33;;;;;;;-3.21;80.83;100814.00;5111352;28;20494;-65
2024/01/23 03:02:13;;;;;;;36.67;21.47;;;;;;;-3.20;80.50;100814.81;5115050;28;20435;-66
2024/01/23 03:04:40;;;;;;;33.07;20.50;;;;;;;-3.23;80.94;100808.03;5115428;28;20463;-65
2024/01/23 03:07:07;;;;;;;33.27;19.97;;;;;;;-3.16;80.98;100805.94;5115155;28;20943;-65
2024/01/23 03:09:34;;;;;;;31.67;18.30;;;;;;;-3.12;80.96;100800.53;5115259;28;20444;-65
2024/01/23 03:12:04;;;;;;;30.33;18.73;;;;;;;-3.15;80.46;100794.66;5115075;28;20428;-65
2024/01/23 03:14:31;;;;;;;31.97;18.30;;;;;;;-3.13;80.64;100791.06;5114864;28;20818;-65
2024/01/23 03:17:03;;;;;;;38.87;20.30;;;;;;;-3.20;80.33;100788.84;5115245;28;20539;-65
2024/01/23 03:19:30;;;;;;;26.93;18.57;;;;;;;-3.19;80.22;100795.72;5115058;28;20859;-65
2024/01/23 03:21:57;;;;;;;29.07;19.63;;;;;;;-3.22;80.08;100785.50;5115128;28;20539;-64
2024/01/23 03:24:22;;;;;;;31.67;19.37;;;;;;;-3.27;80.30;100790.09;5114671;28;20447;-65
2024/01/23 03:26:49;;;;;;;27.90;19.63;;;;;;;-3.33;80.41;100791.22;5115033;28;20497;-66
2024/01/23 03:29:16;;;;;;;30.43;19.10;;;;;;;-3.44;81.25;100780.53;5114472;28;20654;-64
2024/01/23 03:31:43;;;;;;;29.17;19.50;;;;;;;-3.40;82.47;100776.00;5114951;28;20444;-64
2024/01/23 03:34:11;;;;;;;33.80;19.90;;;;;;;-3.36;82.83;100772.34;5114744;28;20472;-64
2024/01/23 03:36:37;;;;;;;30.83;19.23;;;;;;;-3.33;82.26;100760.06;5114914;28;20436;-64
2024/01/23 03:39:04;;;;;;;28.40;17.97;;;;;;;-3.37;81.54;100770.66;5114354;28;21025;-64
2024/01/23 03:41:31;;;;;;;32.00;19.23;;;;;;;-3.44;81.66;100771.91;5114589;28;21035;-65
2024/01/23 03:43:57;;;;;;;35.33;19.60;;;;;;;-3.54;82.73;100770.69;5114690;28;20436;-64
2024/01/23 03:46:24;;;;;;;37.00;19.90;;;;;;;-3.55;84.14;100771.59;5114326;28;20486;-64
2024/01/23 03:48:51;;;;;;;33.40;21.80;;;;;;;-3.50;83.52;100775.66;5114719;28;20516;-65
2024/01/23 03:51:19;;;;;;;30.33;20.77;;;;;;;-3.44;83.07;100772.75;5114201;28;20464;-65
2024/01/23 03:53:46;;;;;;;30.53;20.47;;;;;;;-3.41;83.18;100771.75;5114475;28;20552;-65
2024/01/23 03:56:12;;;;;;;33.63;20.80;;;;;;;-3.39;82.36;100777.72;5114543;28;20436;-65
2024/01/23 03:58:39;;;;;;;35.27;21.20;;;;;;;-3.39;82.76;100767.31;5114043;28;20440;-65
2024/01/23 04:01:06;;;;;;;35.83;21.50;;;;;;;-3.41;82.31;100774.34;5114389;28;20440;-65
2024/01/23 04:03:32;;;;;;;37.30;21.73;;;;;;;-3.58;82.48;100766.56;5113749;28;20836;-65
2024/01/23 04:05:59;;;;;;;32.60;21.07;;;;;;;-3.74;82.45;100770.81;5114334;28;20439;-65
2024/01/23 04:08:27;;;;;;;31.63;21.20;;;;;;;-3.93;83.28;100765.69;5114192;28;20493;-66
2024/01/23 04:10:54;;;;;;;28.93;20.57;;;;;;;-4.05;84.13;100770.66;5113220;28;20428;-66
2024/01/23 04:13:21;;;;;;;32.43;20.57;;;;;;;-4.21;84.28;100767.09;5112878;28;20507;-65
2024/01/23 04:15:48;;;;;;;31.10;19.57;;;;;;;-4.34;85.34;100759.03;5113620;28;20496;-66
2024/01/23 04:18:14;;;;;;;29.10;21.00;;;;;;;-4.39;86.07;100749.78;5113261;28;20439;-66
2024/01/23 04:20:41;;;;;;;30.60;20.67;;;;;;;-4.52;86.89;100748.69;5111959;28;20440;-66
2024/01/23 04:23:08;;;;;;;32.57;21.37;;;;;;;-4.66;87.42;100745.91;5112911;28;20444;-65
2024/01/23 04:25:36;;;;;;;39.07;26.83;;;;;;;-4.84;87.51;100741.53;5113543;28;20440;-66
2024/01/23 04:28:03;;;;;;;35.90;26.60;;;;;;;-4.95;88.16;100743.81;5113920;28;20428;-66
2024/01/23 04:30:29;;;;;;;36.50;23.43;;;;;;;-4.97;88.42;100740.41;5113384;28;20444;-66
2024/01/23 04:32:56;;;;;;;37.67;22.63;;;;;;;-4.97;88.77;100730.06;5112069;28;20529;-67
2024/01/23 04:35:23;;;;;;;27.80;18.27;;;;;;;-5.00;88.88;100725.00;5112763;28;20436;-67
2024/01/23 04:37:50;;;;;;;33.87;21.03;;;;;;;-4.98;88.68;100730.97;5113234;28;20887;-66
2024/01/23 04:40:16;;;;;;;25.63;18.70;;;;;;;-5.09;89.00;100720.25;5112372;28;20875;-67
2024/01/23 04:42:45;;;;;;;26.00;16.93;;;;;;;-5.22;88.91;100717.38;5112125;28;20432;-66
2024/01/23 04:45:11;;;;;;;31.10;21.83;;;;;;;-5.10;89.09;100718.56;5112394;28;20969;-66
2024/01/23 04:47:38;;;;;;;26.67;17.33;;;;;;;-5.08;89.26;100716.75;5112207;28;20485;-67
2024/01/23 04:50:06;;;;;;;27.93;16.97;;;;;;;-5.05;89.05;100716.63;5112462;28;20509;-66
2024/01/23 04:52:33;;;;;;;26.50;17.33;;;;;;;-5.06;89.07;100714.94;5112703;28;20440;-67
2024/01/23 04:54:59;;;;;;;29.13;19.80;;;;;;;-4.90;89.85;100716.75;5112689;28;20480;-67
2024/01/23 04:57:31;;;;;;;26.70;17.20;;;;;;;-4.77;90.20;100709.28;5113119;28;20473;-66
2024/01/23 04:59:59;;;;;;;29.00;18.13;;;;;;;-4.68;88.93;100707.09;5112609;28;20428;-66
2024/01/23 05:02:27;;;;;;;29.23;16.87;;;;;;;-4.62;88.25;100705.97;5112840;28;20436;-66
2024/01/23 05:04:54;;;;;;;26.13;15.83;;;;;;;-4.54;88.61;100703.88;5112629;28;20436;-66
2024/01/23 05:07:20;;;;;;;24.70;16.97;;;;;;;-4.45;88.25;100708.63;5112985;28;20440;-67
2024/01/23 05:09:48;;;;;;;32.20;18.20;;;;;;;-4.35;88.27;100712.44;5112686;28;20444;-66
2024/01/23 05:12:15;;;;;;;41.03;19.53;;;;;;;-4.27;87.85;100702.53;5112690;28;21016;-66
2024/01/23 05:14:41;;;;;;;61.37;23.07;;;;;;;-4.26;86.97;100699.03;5112444;28;20544;-66
2024/01/23 05:17:09;;;;;;;42.97;23.43;;;;;;;-4.19;86.74;100708.19;5112554;28;20871;-66
2024/01/23 05:19:36;;;;;;;39.87;22.03;;;;;;;-4.21;86.02;100697.09;5112345;28;20944;-65
2024/01/23 05:22:03;;;;;;;40.70;21.17;;;;;;;-4.32;85.76;100699.34;5112442;28;20943;-65
2024/01/23 05:24:30;;;;;;;33.13;19.07;;;;;;;-4.21;85.78;100689.31;5112559;28;20464;-65
2024/01/23 05:26:57;;;;;;;37.30;20.20;;;;;;;-4.27;84.83;100702.53;5112458;28;20433;-65
2024/01/23 05:29:23;;;;;;;35.90;24.00;;;;;;;-4.17;85.51;100694.25;5111796;28;20947;-67
2024/01/23 05:31:50;;;;;;;28.77;18.37;;;;;;;-4.20;85.36;100688.38;5112228;28;20448;-65
2024/01/23 05:34:18;;;;;;;30.80;17.83;;;;;;;-4.20;84.51;100684.03;5110614;28;20847;-64
2024/01/23 05:36:45;;;;;;;30.93;16.67;;;;;;;-4.01;84.96;100689.16;5112490;28;20525;-67
2024/01/23 05:39:12;;;;;;;36.20;24.00;;;;;;;-3.91;84.25;100680.00;5111892;28;20958;-66
2024/01/23 05:41:38;;;;;;;23.83;18.40;;;;;;;-3.94;83.84;100688.78;5112369;28;20472;-65
2024/01/23 05:44:05;;;;;;;33.07;20.27;;;;;;;-3.81;83.79;100686.38;5112437;28;20489;-64
2024/01/23 05:46:33;;;;;;;28.37;17.53;;;;;;;-3.73;82.80;100692.03;5112118;28;20444;-66
2024/01/23 05:49:00;;;;;;;28.00;17.67;;;;;;;-3.80;81.84;100690.69;5112623;28;20453;-65
2024/01/23 05:51:28;;;;;;;26.27;17.00;;;;;;;-3.73;82.69;100685.09;5110458;28;20472;-66
2024/01/23 05:53:55;;;;;;;30.17;18.20;;;;;;;-3.77;82.42;100678.38;5110631;28;20483;-65
2024/01/23 05:56:22;;;;;;;27.87;18.40;;;;;;;-3.69;82.46;100680.59;5110450;28;20489;-65
2024/01/23 05:58:49;;;;;;;26.10;19.10;;;;;;;-3.68;82.16;100682.28;5111002;28;20444;-65
2024/01/23 06:01:15;;;;;;;31.70;20.13;;;;;;;-3.64;82.72;100683.81;5110725;28;20452;-65
2024/01/23 06:03:42;;;;;;;18.17;11.50;;;;;;;-1.51;98.14;100661.38;5111742;28;20436;-69
2024/01/23 06:06:09;;;;;;;21.10;12.60;;;;;;;1.02;100.00;100659.34;5111315;28;20444;-69
2024/01/23 06:08:37;;;;;;;30.47;18.30;;;;;;;1.19;100.00;100664.28;5110609;28;20444;-65
2024/01/23 06:11:04;;;;;;;35.07;17.33;;;;;;;0.36;82.53;100697.13;5110903;28;20432;-66
2024/01/23 06:13:30;;;;;;;26.40;17.60;;;;;;;-0.32;76.63;100688.59;5107667;28;20574;-66
2024/01/23 06:15:57;;;;;;;20.00;14.03;;;;;;;-0.94;72.87;100709.97;5109979;28;21099;-65
2024/01/23 06:18:24;;;;;;;24.37;14.53;;;;;;;-1.54;72.11;100696.25;5109703;28;20452;-67
2024/01/23 06:20:51;;;;;;;17.70;14.17;;;;;;;-1.95;73.92;100696.97;5110170;28;20521;-66
2024/01/23 06:23:18;;;;;;;33.57;19.33;;;;;;;-2.27;74.78;100692.75;5109321;28;20440;-65
2024/01/23 06:25:46;;;;;;;37.83;21.50;;;;;;;-2.17;76.43;100696.53;5108166;28;20531;-66
2024/01/23 06:28:13;;;;;;;57.97;26.80;;;;;;;-2.21;76.15;100695.03;5109462;28;20436;-66
2024/01/23 06:30:39;;;;;;;44.63;22.90;;;;;;;-2.19;77.13;100687.97;5109862;28;20497;-66
2024/01/23 06:33:06;;;;;;;45.10;24.00;;;;;;;-2.23;75.96;100695.13;5109381;28;20436;-66
2024/01/23 06:35:33;;;;;;;38.13;20.63;;;;;;;-2.28;76.27;100691.09;5110998;28;20521;-67
2024/01/23 06:38:00;;;;;;;25.80;17.10;;;;;;;-2.19;76.32;100688.81;5108715;28;20444;-66
2024/01/23 06:40:26;;;;;;;14.93;12.77;;;;;;;-2.10;76.91;100690.03;5112547;28;20525;-66
2024/01/23 06:42:54;;;;;;;30.73;17.53;;;;;;;-2.00;75.08;100710.25;5112226;28;20844;-67
2024/01/23 06:45:22;;;;;;;18.53;14.63;;;;;;;-2.10;74.26;100708.25;5112206;28;20435;-66
2024/01/23 06:47:48;;;;;;;21.30;13.73;;;;;;;-2.14;75.42;100701.53;5113536;28;20497;-65
2024/01/23 06:50:16;;;;;;;22.93;14.93;;;;;;;-1.74;75.00;100703.53;5113922;28;20448;-65
2024/01/23 06:52:42;;;;;;;26.07;14.97;;;;;;;-1.61;73.77;100712.31;5113586;28;21061;-65
2024/01/23 06:55:10;;;;;;;35.90;14.27;;;;;;;-1.60;72.67;100708.78;5112742;28;20541;-65
2024/01/23 06:57:36;;;;;;;22.80;14.30;;;;;;;-1.81;72.34;100657.94;5113667;27;21024;-65
2024/01/23 07:00:08;;;;;;;28.00;15.97;;;;;;;-1.49;72.50;100711.59;5113328;28;20466;-66
2024/01/23 07:02:34;;;;;;;29.03;15.60;;;;;;;-1.29;73.43;100693.00;5113140;28;20478;-66
2024/01/23 07:05:01;;;;;;;25.03;14.67;;;;;;;-0.96;73.51;100701.38;5113250;27;20866;-64
2024/01/23 07:07:28;;;;;;;21.77;14.13;;;;;;;-0.96;70.20;100706.59;5111098;28;20452;-65
2024/01/23 07:09:54;;;;;;;20.30;13.83;;;;;;;-1.12;70.26;100703.25;5113341;28;20443;-65
2024/01/23 07:12:21;;;;;;;21.57;13.20;;;;;;;-1.05;70.36;100707.16;5112891;28;21001;-65
2024/01/23 07:14:48;;;;;;;13.73;11.83;;;;;;;-0.89;69.53;100708.72;5112875;28;20544;-65
2024/01/23 07:17:17;;;;;;;13.93;11.03;;;;;;;-0.75;70.39;100700.06;5111367;28;20451;-66
2024/01/23 07:19:44;;;;;;;16.40;12.27;;;;;;;-0.50;70.03;100701.03;5113409;28;20527;-65
2024/01/23 07:22:11;;;;;;;18.57;13.80;;;;;;;-0.41;69.05;100699.59;5112792;27;20452;-66
2024/01/23 07:24:37;;;;;;;17.37;13.57;;;;;;;-0.13;68.22;100691.69;5112277;28;20440;-66
2024/01/23 07:27:04;;;;;;;35.57;16.37;;;;;;;0.32;68.49;100691.25;5112906;28;20505;-67
2024/01/23 07:29:31;;;;;;;25.43;16.67;;;;;;;1.09;65.27;100693.78;5112776;28;20452;-66
2024/01/23 07:31:58;;;;;;;25.07;16.77;;;;;;;1.66;63.82;100693.09;5112719;28;21027;-67
2024/01/23 07:34:26;;;;;;;25.93;16.60;;;;;;;2.02;61.37;100702.69;5112419;28;20475;-65
2024/01/23 07:36:53;;;;;;;28.77;18.40;;;;;;;1.99;61.06;100682.78;5112918;28;22099;-66
2024/01/23 07:39:20;;;;;;;24.20;15.53;;;;;;;1.98;60.99;100682.91;5113259;27;20950;-66
2024/01/23 07:41:47;;;;;;;22.37;16.57;;;;;;;1.84;59.83;100678.66;5112932;28;20444;-65
2024/01/23 07:44:14;;;;;;;26.67;16.80;;;;;;;2.11;62.00;100676.66;5112187;28;21021;-67
2024/01/23 07:46:41;;;;;;;22.87;16.07;;;;;;;2.09;61.63;100673.31;5112217;28;20444;-67
2024/01/23 07:49:07;;;;;;;21.00;15.50;;;;;;;2.53;61.37;100673.41;5109858;28;20444;-65
2024/01/23 07:51:46;;;;;;;27.87;14.90;;;;;;;2.73;64.33;100669.31;5112389;28;20793;-68
2024/01/23 07:54:13;;;;;;;18.13;15.50;;;;;;;2.67;62.17;100664.50;5111994;27;20947;-69
2024/01/23 07:56:40;;;;;;;25.90;17.07;;;;;;;2.33;60.64;100666.22;5111284;27;20475;-67
2024/01/23 07:59:07;;;;;;;29.77;17.97;;;;;;;2.12;62.11;100656.53;5112413;28;20448;-67
2024/01/23 08:01:33;;;;;;;26.03;15.40;;;;;;;2.21;62.06;100648.78;5112169;28;20444;-68
2024/01/23 08:04:00;;;;;;;25.23;17.23;;;;;;;2.36;62.44;100652.91;5111742;28;20978;-67
2024/01/23 08:06:27;;;;;;;22.13;15.47;;;;;;;2.46;62.26;100651.25;5112345;28;20444;-67
2024/01/23 08:08:55;;;;;;;19.37;14.10;;;;;;;3.03;62.19;100657.22;5111838;28;20563;-67
2024/01/23 08:11:22;;;;;;;21.30;14.97;;;;;;;3.21;60.10;100666.31;5111852;28;20448;-67
2024/01/23 08:13:48;;;;;;;35.87;16.97;;;;;;;3.18;59.43;100669.16;5111730;28;20493;-67
2024/01/23 08:16:16;;;;;;;25.70;13.73;;;;;;;2.78;58.83;100673.22;5111922;28;20984;-66
2024/01/23 08:18:42;;;;;;;16.87;12.97;;;;;;;2.84;59.80;100670.13;5111728;27;20985;-67
2024/01/23 08:21:09;;;;;;;24.70;14.80;;;;;;;2.71;58.69;100674.66;5104851;28;20506;-65
2024/01/23 08:23:36;;;;;;;18.57;12.77;;;;;;;2.97;59.07;100678.72;5111831;28;20450;-62
2024/01/23 08:26:05;;;;;;;16.93;11.33;;;;;;;2.88;58.86;100671.56;5111641;28;20452;-63
2024/01/23 08:28:32;;;;;;;20.23;12.20;;;;;;;2.96;58.60;100676.22;5112000;28;20436;-64
2024/01/23 08:31:03;;;;;;;15.60;11.30;;;;;;;3.35;61.02;100662.59;5111791;28;20493;-67
2024/01/23 08:33:30;;;;;;;14.53;11.40;;;;;;;3.53;57.01;100661.97;5111317;28;20432;-63
2024/01/23 08:35:57;;;;;;;28.20;13.73;;;;;;;3.58;58.15;100653.69;5110422;28;21055;-66
2024/01/23 08:38:24;;;;;;;14.73;11.47;;;;;;;3.42;56.13;100654.09;5111799;27;20509;-65
2024/01/23 08:40:51;;;;;;;16.10;11.83;;;;;;;3.32;57.41;100647.94;5111372;28;20225;-66
2024/01/23 08:43:19;;;;;;;12.80;10.60;;;;;;;2.95;57.25;100643.91;5111414;28;20440;-67
2024/01/23 08:45:46;;;;;;;11.37;10.30;;;;;;;2.47;59.08;100637.19;5111015;28;20951;-65
2024/01/23 08:48:13;;;;;;;13.43;10.90;;;;;;;2.65;59.61;100625.28;5109963;28;20432;-64
2024/01/23 08:50:41;;;;;;;12.77;10.77;;;;;;;3.39;58.30;100632.50;5111024;28;20575;-65
2024/01/23 08:53:08;;;;;;;22.20;13.37;;;;;;;3.64;55.64;100638.28;5110976;27;20456;-66
2024/01/23 08:55:34;;;;;;;15.93;13.13;;;;;;;3.40;56.11;100645.53;5110797;28;20887;-65
2024/01/23 08:58:01;;;;;;;34.23;11.67;;;;;;;3.33;57.24;100633.84;5110161;28;20453;-68
2024/01/23 09:00:29;;;;;;;20.33;11.97;;;;;;;3.10;58.42;100636.63;5108269;28;20202;-68
2024/01/23 09:02:56;;;;;;;19.90;12.73;;;;;;;3.13;58.57;100629.31;5111055;28;20493;-66
2024/01/23 09:05:22;;;;;;;34.40;16.27;;;;;;;3.22;58.51;100625.97;5110345;28;20449;-65
2024/01/23 09:07:49;;;;;;;14.37;11.07;;;;;;;3.00;59.23;100633.88;5111232;28;20505;-68
2024/01/23 09:10:17;;;;;;;15.03;11.70;;;;;;;2.99;60.99;100621.69;5110848;28;20493;-65
2024/01/23 09:12:43;;;;;;;16.67;12.03;;;;;;;3.35;58.61;100616.16;5111300;28;20447;-65
2024/01/23 09:15:10;;;;;;;19.43;12.57;;;;;;;3.61;58.24;100617.53;5111365;27;21122;-66
2024/01/23 09:17:38;;;;;;;18.57;13.70;;;;;;;3.60;57.81;100613.22;5110729;28;21028;-72
2024/01/23 09:20:06;;;;;;;19.37;13.17;;;;;;;3.54;58.20;100626.00;5109353;28;20489;-65
2024/01/23 09:22:33;;;;;;;19.67;12.00;;;;;;;3.52;57.83;100607.75;5110091;28;20444;-67
2024/01/23 09:25:02;;;;;;;18.37;13.43;;;;;;;3.56;58.49;100603.91;5110437;28;20852;-65
2024/01/23 09:27:29;;;;;;;15.63;12.83;;;;;;;3.80;56.68;100606.34;5108820;28;20445;-66
2024/01/23 09:29:56;;;;;;;16.03;12.13;;;;;;;3.66;56.40;100601.38;5110329;28;20198;-69
2024/01/23 09:32:23;;;;;;;17.50;12.17;;;;;;;3.65;57.48;100584.78;5110510;28;20267;-68
2024/01/23 09:34:51;;;;;;;13.27;10.83;;;;;;;3.89;57.25;100598.53;5110554;28;20902;-66
2024/01/23 09:37:18;;;;;;;14.97;11.43;;;;;;;4.28;57.18;100597.00;5110169;28;20861;-66
2024/01/23 09:39:44;;;;;;;16.30;10.50;;;;;;;4.45;54.73;100602.50;5110429;28;20546;-65
2024/01/23 09:42:11;;;;;;;12.33;10.30;;;;;;;4.41;55.82;100598.47;5109923;28;20873;-66
2024/01/23 09:44:39;;;;;;;17.10;9.80;;;;;;;4.70;53.96;100596.00;5110207;28;20622;-65
2024/01/23 09:47:06;;;;;;;15.60;10.97;;;;;;;4.84;53.77;100599.09;5110713;28;20194;-66
2024/01/23 09:49:35;;;;;;;12.47;9.57;;;;;;;4.23;52.75;100586.03;5110139;28;20198;-66
2024/01/23 09:52:07;;;;;;;14.00;10.03;;;;;;;4.19;54.62;100588.09;5110442;28;20205;-69
2024/01/23 09:54:34;;;;;;;18.80;10.67;;;;;;;4.14;54.09;100579.78;5109797;28;20206;-68
2024/01/23 09:57:01;;;;;;;17.03;10.83;;;;;;;3.92;54.31;100566.75;5110391;28;20271;-66
2024/01/23 09:59:28;;;;;;;15.40;10.43;;;;;;;3.97;54.09;100567.19;5107925;28;20205;-65
2024/01/23 10:01:55;;;;;;;22.33;15.00;;;;;;;3.82;55.47;100562.38;5108436;28;20255;-66
2024/01/23 10:04:23;;;;;;;21.40;13.00;;;;;;;3.76;56.25;100532.19;5107870;28;20247;-72
2024/01/23 10:06:50;;;;;;;18.33;11.90;;;;;;;3.93;56.45;100555.25;5107757;28;20240;-68
2024/01/23 10:09:18;;;;;;;19.43;10.73;;;;;;;3.97;56.54;100545.34;5104639;28;20750;-65
2024/01/23 10:11:45;;;;;;;13.77;11.40;;;;;;;4.05;57.25;100548.97;5103173;28;20197;-69
2024/01/23 10:14:14;;;;;;;20.93;12.30;;;;;;;4.32;56.28;100546.66;5105971;28;20684;-71
2024/01/23 10:16:42;;;;;;;13.63;10.60;;;;;;;4.40;54.99;100544.19;5104170;28;20218;-67
2024/01/23 10:19:11;;;;;;;13.33;10.47;;;;;;;4.64;55.04;100544.72;5104237;28;20277;-68
2024/01/23 10:21:38;;;;;;;10.83;9.73;;;;;;;4.92;53.25;100549.25;5101365;28;20225;-69
2024/01/23 10:24:06;;;;;;;11.07;9.90;;;;;;;5.21;52.30;100544.03;5106061;28;20229;-66
2024/01/23 10:26:34;;;;;;;25.20;14.83;;;;;;;5.18;51.61;100541.66;5104042;28;20194;-70
2024/01/23 10:29:02;;;;;;;11.53;10.33;;;;;;;5.21;51.24;100531.72;5105972;28;20267;-72
2024/01/23 10:31:29;;;;;;;14.17;9.43;;;;;;;5.46;51.28;100532.97;5101297;28;20661;-67
2024/01/23 10:33:57;;;;;;;9.73;8.83;;;;;;;5.37;49.73;100537.28;5108821;28;20191;-71
2024/01/23 10:36:24;;;;;;;12.67;9.47;;;;;;;5.37;50.31;100528.53;5106305;28;21033;-66
2024/01/23 10:38:54;;;;;;;11.63;10.43;;;;;;;5.62;49.99;100528.81;5107254;28;20420;-71
2024/01/23 10:41:21;;;;;;;10.00;9.10;;;;;;;5.88;49.44;100523.00;5108068;28;20222;-72
2024/01/23 10:43:53;;;;;;;17.47;9.57;;;;;;;6.11;48.68;100519.03;5109182;28;20195;-72
2024/01/23 10:46:20;;;;;;;13.93;10.10;;;;;;;6.34;48.39;100507.19;5108809;28;20346;-71
2024/01/23 10:48:47;;;;;;;12.80;10.10;;;;;;;6.35;47.94;100508.84;5109408;28;20203;-73
2024/01/23 10:51:18;;;;;;;14.57;11.70;;;;;;;6.50;48.50;100507.41;5106014;28;20195;-72
2024/01/23 10:53:56;;;;;;;10.70;9.27;;;;;;;6.75;47.00;100499.66;5107997;28;20191;-72
2024/01/23 10:56:24;;;;;;;11.37;8.30;;;;;;;6.63;47.53;100492.91;5109308;28;20202;-71
2024/01/23 10:59:00;;;;;;;11.00;8.60;;;;;;;6.44;48.73;100494.78;5110073;28;20203;-72
2024/01/23 11:01:28;;;;;;;10.17;8.30;;;;;;;6.47;47.16;100481.31;5109940;28;20194;-71
2024/01/23 11:03:56;;;;;;;17.20;9.10;;;;;;;6.64;47.05;100478.72;5108672;28;20226;-72
2024/01/23 11:06:29;;;;;;;9.60;8.27;;;;;;;6.72;46.31;100481.47;5109470;28;20202;-73
2024/01/23 11:09:03;;;;;;;16.60;8.93;;;;;;;6.62;45.73;100466.66;5109788;28;20191;-72
2024/01/23 11:11:36;;;;;;;13.53;8.23;;;;;;;6.79;47.15;100456.13;5110117;28;20596;-71